Hlavní strana
METAR-TAF:

METAR-TAF

Letiště :

Fort Good Hope, Severozápadní teritoria, Kanada

zeměpisná šířka: 66-16N, zeměpisná délka: 128-37W, výška: 60 m

Aktuální stav počasí

Zpráva byla vytvořena před 31 minutami, v 15:00 UTC
Severoseverozápadní vítr 4 kt
Teplota -6°C
Vlhkost vzduchu 68%
Tlak 1025 hPa
Viditelnost: 40.2 km
Skoro jasno ve výšce 9000 ft

METAR: CYGH 201500Z 33004KT 25SM FEW090 M06/M11 A3027 RMK AC1 SLP260

Čas: 09:31 (15:31 UTC)

Předpověď počasí

Zpráva byla vytvořena před 1 hodinou a 21 minutami, v 14:10 UTC
Předpověď platná od 20 v 14 UTC do 20 v 23 UTC
Severní vítr 5 kt
Viditelnost: 10 km
Skoro jasno ve výšce 9000 ft
Změna
od 20 v 19 UTC do 20 v 21 UTC
Východoseverovýchodní vítr 7 kt

TAF: CYGH 201410Z 2014/2023 36005KT P6SM FEW090 BECMG 2019/2021 07007KT RMK NXT FCST BY 201800Z

Stav a předpovědi počasí z více než 4 000 letišť (zprávy METAR a TAF).

Červené a žluté tečky na mapě představují dostupné meteorologické stanice.

Když kurzor umístíte na tečku, zobrazí se název stanice.

Pak kliknutím zobrazíte stav a předpověď počasí.

Chcete-li změnit mapu, kliknutím na zelené tlačítko se znaménkem +mapu přiblížíte, kliknutím na zelené tlačítko se znaménkem – mapu oddálíte a kliknutím na zelené šipky přejdete na sousední mapy.


METAR-TAF: